Frankfort, ME

9:42 AM EST on December 18, 2014 (GMT -0500)
Mosquito Mountain | Change Station
CLOSE
Current Station
Personal Weather Station
Location: Frankfort, ME
Elevation: 204 ft
Nearby Weather Stations

Elev 204 ft 44.59 °N, 68.87 °W | Updated 18 seconds ago

Snow
Snow
33.1 °F
Feels Like 33 °F
N
2.7
Wind Variable Wind from North

Today
High -- | Low -- °F
--% Chance of Precip.
Yesterday
High -- | Low -- °F
Precip. -- in
7:07 AM 3:57 PM
Waning Crescent, 14% visible
Pressure 29.62 in
Visibility 1.8 miles
Clouds Few 900 ft
Mostly Cloudy 2500 ft
Overcast 3800 ft
Windchill 33 °F
Dew Point 32 °F
Humidity 95%
Rainfall 0.00 in
Snow Depth Not available.
UV 0 out of 12
Pollen .10 out of 12
Air Quality Not available.
Flu Activity Not available.
METAR KBGR 181353Z 33013KT 1 3/4SM -SN BR FEW009 BKN025 OVC038 00/M01 A2961 RMK AO2 SFC VIS 2 SLP029 P0000 T00001011

More Conditions Fewer Conditions

Pressure 29.62 in
Visibility 1.8 miles
Clouds Few 900 ft
Mostly Cloudy 2500 ft
Overcast 3800 ft
Windchill 33 °F
Dew Point 32 °F
Humidity 95%
Rainfall 0.00 in
Snow Depth Not available.
UV 0 out of 12
Pollen .10 out of 12
Air Quality Not available.
Flu Activity Not available.
METAR KBGR 181353Z 33013KT 1 3/4SM -SN BR FEW009 BKN025 OVC038 00/M01 A2961 RMK AO2 SFC VIS 2 SLP029 P0000 T00001011

More Conditions Fewer Conditions

10-Day Weather Forecast

Almanac

Astronomy

Dec. 18, 2014 Rise Set
Actual Time
Civil Twilight
Nautical Twilight
Astronomical Twilight
Moon
Length of Visible Light
Length of Day
Tomorrow will be .
, % of the Moon is Illuminated

Today's Extremes

State Highs State Lows

Community

WunderPhotos

Upload Photos

1,778,929 photos uploaded!

WunderBlogs® & News

Nearby

Air Quality

  Air Quality AQ Index Pollutant
Not available.

Snow Depth

Station Depth Elevation

Earthquake Activity

City Distance Mag. Time & Date
Minimum magnitude displayed is 2.5.

Coastal Water Temperatures

Place Temperature

Nearby Weather Stations